sensor_id;sensor_type;location;lat;lon;timestamp;temperature;humidity
5711;DHT22;61291;52.524;13.422;2023-02-26T00:02:15;0.90;99.90
5711;DHT22;61291;52.524;13.422;2023-02-26T00:04:41;0.90;99.90
5711;DHT22;61291;52.524;13.422;2023-02-26T00:07:06;0.90;99.90
5711;DHT22;61291;52.524;13.422;2023-02-26T00:09:32;0.90;99.90
5711;DHT22;61291;52.524;13.422;2023-02-26T00:11:59;0.80;99.90
5711;DHT22;61291;52.524;13.422;2023-02-26T00:14:25;0.80;99.90
5711;DHT22;61291;52.524;13.422;2023-02-26T00:19:42;0.80;99.90
5711;DHT22;61291;52.524;13.422;2023-02-26T00:22:08;0.80;99.90
5711;DHT22;61291;52.524;13.422;2023-02-26T00:24:33;0.80;99.90
5711;DHT22;61291;52.524;13.422;2023-02-26T00:27:01;0.80;99.90
5711;DHT22;61291;52.524;13.422;2023-02-26T00:29:27;0.80;99.90
5711;DHT22;61291;52.524;13.422;2023-02-26T00:31:52;0.90;99.90
5711;DHT22;61291;52.524;13.422;2023-02-26T00:34:18;0.90;99.90
5711;DHT22;61291;52.524;13.422;2023-02-26T00:39:40;0.90;99.90
5711;DHT22;61291;52.524;13.422;2023-02-26T00:42:08;1.00;99.90
5711;DHT22;61291;52.524;13.422;2023-02-26T00:44:34;1.00;99.90
5711;DHT22;61291;52.524;13.422;2023-02-26T00:47:05;1.00;99.90
5711;DHT22;61291;52.524;13.422;2023-02-26T00:49:48;1.00;99.90
5711;DHT22;61291;52.524;13.422;2023-02-26T00:54:57;1.10;99.90
5711;DHT22;61291;52.524;13.422;2023-02-26T00:57:22;1.10;99.90
5711;DHT22;61291;52.524;13.422;2023-02-26T00:59:48;1.10;99.90
5711;DHT22;61291;52.524;13.422;2023-02-26T01:02:16;1.10;99.90
5711;DHT22;61291;52.524;13.422;2023-02-26T01:04:42;1.10;99.90
5711;DHT22;61291;52.524;13.422;2023-02-26T01:07:08;1.20;99.90
5711;DHT22;61291;52.524;13.422;2023-02-26T01:09:36;1.20;99.90
5711;DHT22;61291;52.524;13.422;2023-02-26T01:12:10;1.20;99.90
5711;DHT22;61291;52.524;13.422;2023-02-26T01:14:37;1.30;99.90
5711;DHT22;61291;52.524;13.422;2023-02-26T01:17:17;1.30;99.90
5711;DHT22;61291;52.524;13.422;2023-02-26T01:19:53;1.30;99.90
5711;DHT22;61291;52.524;13.422;2023-02-26T01:24:53;1.40;99.90
5711;DHT22;61291;52.524;13.422;2023-02-26T01:27:20;1.40;99.90
5711;DHT22;61291;52.524;13.422;2023-02-26T01:29:46;1.40;99.90
5711;DHT22;61291;52.524;13.422;2023-02-26T01:33:01;1.40;99.90
5711;DHT22;61291;52.524;13.422;2023-02-26T01:35:19;1.40;99.90
5711;DHT22;61291;52.524;13.422;2023-02-26T01:37:56;1.40;99.90
5711;DHT22;61291;52.524;13.422;2023-02-26T01:43:06;1.40;99.90
5711;DHT22;61291;52.524;13.422;2023-02-26T01:45:38;1.40;99.90
5711;DHT22;61291;52.524;13.422;2023-02-26T01:48:37;1.40;99.90
5711;DHT22;61291;52.524;13.422;2023-02-26T01:51:08;1.40;99.90
5711;DHT22;61291;52.524;13.422;2023-02-26T01:53:33;1.30;99.90
5711;DHT22;61291;52.524;13.422;2023-02-26T01:56:08;1.40;99.90
5711;DHT22;61291;52.524;13.422;2023-02-26T01:58:36;1.40;99.90
5711;DHT22;61291;52.524;13.422;2023-02-26T02:01:03;1.40;99.90
5711;DHT22;61291;52.524;13.422;2023-02-26T02:03:31;1.40;99.90
5711;DHT22;61291;52.524;13.422;2023-02-26T02:06:01;1.40;99.90
5711;DHT22;61291;52.524;13.422;2023-02-26T02:08:29;1.40;99.90
5711;DHT22;61291;52.524;13.422;2023-02-26T02:10:54;1.50;99.90
5711;DHT22;61291;52.524;13.422;2023-02-26T02:13:37;1.50;99.90
5711;DHT22;61291;52.524;13.422;2023-02-26T02:16:47;1.50;99.90
5711;DHT22;61291;52.524;13.422;2023-02-26T02:19:23;1.50;99.90
5711;DHT22;61291;52.524;13.422;2023-02-26T02:22:31;1.50;99.90
5711;DHT22;61291;52.524;13.422;2023-02-26T02:25:10;1.50;99.90
5711;DHT22;61291;52.524;13.422;2023-02-26T02:33:05;1.50;99.90
5711;DHT22;61291;52.524;13.422;2023-02-26T02:35:52;1.50;99.90
5711;DHT22;61291;52.524;13.422;2023-02-26T02:38:31;1.50;99.90
5711;DHT22;61291;52.524;13.422;2023-02-26T02:41:07;1.50;99.90
5711;DHT22;61291;52.524;13.422;2023-02-26T02:43:35;1.50;99.90
5711;DHT22;61291;52.524;13.422;2023-02-26T02:46:12;1.50;99.90
5711;DHT22;61291;52.524;13.422;2023-02-26T02:48:59;1.50;99.90
5711;DHT22;61291;52.524;13.422;2023-02-26T02:51:40;1.50;99.90
5711;DHT22;61291;52.524;13.422;2023-02-26T02:54:25;1.60;99.90
5711;DHT22;61291;52.524;13.422;2023-02-26T02:57:03;1.50;99.90
5711;DHT22;61291;52.524;13.422;2023-02-26T02:59:43;1.50;99.90
5711;DHT22;61291;52.524;13.422;2023-02-26T03:02:10;1.50;99.90
5711;DHT22;61291;52.524;13.422;2023-02-26T03:04:38;1.50;99.90
5711;DHT22;61291;52.524;13.422;2023-02-26T03:07:05;1.50;99.90
5711;DHT22;61291;52.524;13.422;2023-02-26T03:09:31;1.40;99.90
5711;DHT22;61291;52.524;13.422;2023-02-26T03:11:57;1.40;99.90
5711;DHT22;61291;52.524;13.422;2023-02-26T03:14:22;1.40;99.90
5711;DHT22;61291;52.524;13.422;2023-02-26T03:22:19;1.40;99.90
5711;DHT22;61291;52.524;13.422;2023-02-26T03:25:04;1.30;99.90
5711;DHT22;61291;52.524;13.422;2023-02-26T03:27:37;1.30;99.90
5711;DHT22;61291;52.524;13.422;2023-02-26T03:30:27;1.30;99.90
5711;DHT22;61291;52.524;13.422;2023-02-26T03:35:48;1.20;99.90
5711;DHT22;61291;52.524;13.422;2023-02-26T03:38:36;1.20;99.90
5711;DHT22;61291;52.524;13.422;2023-02-26T03:41:07;1.20;99.90
5711;DHT22;61291;52.524;13.422;2023-02-26T03:44:05;1.30;99.90
5711;DHT22;61291;52.524;13.422;2023-02-26T03:46:40;1.30;99.90
5711;DHT22;61291;52.524;13.422;2023-02-26T03:49:12;1.30;99.90
5711;DHT22;61291;52.524;13.422;2023-02-26T03:51:39;1.30;99.90
5711;DHT22;61291;52.524;13.422;2023-02-26T03:54:33;1.30;99.90
5711;DHT22;61291;52.524;13.422;2023-02-26T03:56:59;1.30;99.90
5711;DHT22;61291;52.524;13.422;2023-02-26T03:59:25;1.30;99.90
5711;DHT22;61291;52.524;13.422;2023-02-26T04:01:58;1.30;99.90
5711;DHT22;61291;52.524;13.422;2023-02-26T04:04:32;1.30;99.90
5711;DHT22;61291;52.524;13.422;2023-02-26T04:06:59;1.30;99.90
5711;DHT22;61291;52.524;13.422;2023-02-26T04:09:25;1.40;99.90
5711;DHT22;61291;52.524;13.422;2023-02-26T04:11:52;1.30;99.90
5711;DHT22;61291;52.524;13.422;2023-02-26T04:14:18;1.40;99.90
5711;DHT22;61291;52.524;13.422;2023-02-26T04:16:44;1.40;99.90
5711;DHT22;61291;52.524;13.422;2023-02-26T04:19:09;1.40;99.90
5711;DHT22;61291;52.524;13.422;2023-02-26T04:21:35;1.40;99.90
5711;DHT22;61291;52.524;13.422;2023-02-26T04:24:01;1.40;99.90
5711;DHT22;61291;52.524;13.422;2023-02-26T04:26:26;1.40;99.90
5711;DHT22;61291;52.524;13.422;2023-02-26T04:28:52;1.40;99.90
5711;DHT22;61291;52.524;13.422;2023-02-26T04:31:17;1.50;99.90
5711;DHT22;61291;52.524;13.422;2023-02-26T04:33:43;1.50;99.90
5711;DHT22;61291;52.524;13.422;2023-02-26T04:36:09;1.50;99.90
5711;DHT22;61291;52.524;13.422;2023-02-26T04:38:34;1.40;99.90
5711;DHT22;61291;52.524;13.422;2023-02-26T04:41:00;1.40;99.90
5711;DHT22;61291;52.524;13.422;2023-02-26T04:43:26;1.40;99.90
5711;DHT22;61291;52.524;13.422;2023-02-26T04:45:51;1.40;99.90
5711;DHT22;61291;52.524;13.422;2023-02-26T04:48:17;1.40;99.90
5711;DHT22;61291;52.524;13.422;2023-02-26T04:50:43;1.50;99.90
5711;DHT22;61291;52.524;13.422;2023-02-26T04:53:08;1.40;99.90
5711;DHT22;61291;52.524;13.422;2023-02-26T04:55:34;1.40;99.90
5711;DHT22;61291;52.524;13.422;2023-02-26T04:58:00;1.40;99.90
5711;DHT22;61291;52.524;13.422;2023-02-26T05:00:26;1.40;99.90
5711;DHT22;61291;52.524;13.422;2023-02-26T05:02:52;1.40;99.90
5711;DHT22;61291;52.524;13.422;2023-02-26T05:05:17;1.40;99.90
5711;DHT22;61291;52.524;13.422;2023-02-26T05:07:43;1.40;99.90
5711;DHT22;61291;52.524;13.422;2023-02-26T05:10:09;1.40;99.90
5711;DHT22;61291;52.524;13.422;2023-02-26T05:12:35;1.40;99.90
5711;DHT22;61291;52.524;13.422;2023-02-26T05:15:01;1.50;99.90
5711;DHT22;61291;52.524;13.422;2023-02-26T05:17:27;1.40;99.90
5711;DHT22;61291;52.524;13.422;2023-02-26T05:19:52;1.50;99.90
5711;DHT22;61291;52.524;13.422;2023-02-26T05:22:18;1.40;99.90
5711;DHT22;61291;52.524;13.422;2023-02-26T05:24:43;1.50;99.90
5711;DHT22;61291;52.524;13.422;2023-02-26T05:27:09;1.50;99.90
5711;DHT22;61291;52.524;13.422;2023-02-26T05:29:35;1.50;99.90
5711;DHT22;61291;52.524;13.422;2023-02-26T05:32:01;1.50;99.90
5711;DHT22;61291;52.524;13.422;2023-02-26T05:34:26;1.50;99.90
5711;DHT22;61291;52.524;13.422;2023-02-26T05:36:52;1.50;99.90
5711;DHT22;61291;52.524;13.422;2023-02-26T05:39:17;1.50;99.90
5711;DHT22;61291;52.524;13.422;2023-02-26T05:41:43;1.50;99.90
5711;DHT22;61291;52.524;13.422;2023-02-26T05:44:10;1.50;99.90
5711;DHT22;61291;52.524;13.422;2023-02-26T05:46:36;1.50;99.90
5711;DHT22;61291;52.524;13.422;2023-02-26T05:49:01;1.50;99.90
5711;DHT22;61291;52.524;13.422;2023-02-26T05:51:27;1.50;99.90
5711;DHT22;61291;52.524;13.422;2023-02-26T05:53:53;1.60;99.90
5711;DHT22;61291;52.524;13.422;2023-02-26T05:56:19;1.50;99.90
5711;DHT22;61291;52.524;13.422;2023-02-26T05:58:44;1.60;99.90
5711;DHT22;61291;52.524;13.422;2023-02-26T06:01:10;1.60;99.90
5711;DHT22;61291;52.524;13.422;2023-02-26T06:03:35;1.60;99.90
5711;DHT22;61291;52.524;13.422;2023-02-26T06:06:01;1.60;99.90
5711;DHT22;61291;52.524;13.422;2023-02-26T06:08:26;1.60;99.90
5711;DHT22;61291;52.524;13.422;2023-02-26T06:10:52;1.60;99.90
5711;DHT22;61291;52.524;13.422;2023-02-26T06:13:17;1.60;99.90
5711;DHT22;61291;52.524;13.422;2023-02-26T06:15:43;1.60;99.90
5711;DHT22;61291;52.524;13.422;2023-02-26T06:18:09;1.60;99.90
5711;DHT22;61291;52.524;13.422;2023-02-26T06:20:34;1.70;99.90
5711;DHT22;61291;52.524;13.422;2023-02-26T06:23:00;1.70;99.90
5711;DHT22;61291;52.524;13.422;2023-02-26T06:25:25;1.80;99.90
5711;DHT22;61291;52.524;13.422;2023-02-26T06:27:51;1.90;99.90
5711;DHT22;61291;52.524;13.422;2023-02-26T06:30:17;2.00;99.90
5711;DHT22;61291;52.524;13.422;2023-02-26T06:32:43;2.00;99.90
5711;DHT22;61291;52.524;13.422;2023-02-26T06:35:09;2.20;99.90
5711;DHT22;61291;52.524;13.422;2023-02-26T06:37:35;2.10;99.90
5711;DHT22;61291;52.524;13.422;2023-02-26T06:40:01;2.10;99.90
5711;DHT22;61291;52.524;13.422;2023-02-26T06:42:26;2.20;99.90
5711;DHT22;61291;52.524;13.422;2023-02-26T06:44:52;2.20;99.90
5711;DHT22;61291;52.524;13.422;2023-02-26T06:47:17;2.60;99.90
5711;DHT22;61291;52.524;13.422;2023-02-26T06:49:43;3.20;99.90
5711;DHT22;61291;52.524;13.422;2023-02-26T06:52:08;3.60;99.90
5711;DHT22;61291;52.524;13.422;2023-02-26T06:54:34;3.90;99.90
5711;DHT22;61291;52.524;13.422;2023-02-26T06:56:59;3.90;99.90
5711;DHT22;61291;52.524;13.422;2023-02-26T06:59:26;4.20;99.90
5711;DHT22;61291;52.524;13.422;2023-02-26T07:01:53;5.00;99.90
5711;DHT22;61291;52.524;13.422;2023-02-26T07:04:18;5.20;99.90
5711;DHT22;61291;52.524;13.422;2023-02-26T07:06:44;5.20;99.90
5711;DHT22;61291;52.524;13.422;2023-02-26T07:09:09;4.70;99.90
5711;DHT22;61291;52.524;13.422;2023-02-26T07:11:35;4.30;99.90
5711;DHT22;61291;52.524;13.422;2023-02-26T07:14:00;3.90;99.90
5711;DHT22;61291;52.524;13.422;2023-02-26T07:16:26;3.50;99.90
5711;DHT22;61291;52.524;13.422;2023-02-26T07:18:51;3.10;99.90
5711;DHT22;61291;52.524;13.422;2023-02-26T07:21:17;2.90;99.90
5711;DHT22;61291;52.524;13.422;2023-02-26T07:23:42;2.70;99.90
5711;DHT22;61291;52.524;13.422;2023-02-26T07:26:08;2.50;99.90
5711;DHT22;61291;52.524;13.422;2023-02-26T07:28:33;2.50;99.90
5711;DHT22;61291;52.524;13.422;2023-02-26T07:30:59;2.50;99.90
5711;DHT22;61291;52.524;13.422;2023-02-26T07:33:25;2.30;99.90
5711;DHT22;61291;52.524;13.422;2023-02-26T07:35:53;2.30;99.90
5711;DHT22;61291;52.524;13.422;2023-02-26T07:38:18;2.30;99.90
5711;DHT22;61291;52.524;13.422;2023-02-26T07:40:44;2.20;99.90
5711;DHT22;61291;52.524;13.422;2023-02-26T07:43:09;2.30;99.90
5711;DHT22;61291;52.524;13.422;2023-02-26T07:45:35;2.30;99.90
5711;DHT22;61291;52.524;13.422;2023-02-26T07:48:00;2.30;99.90
5711;DHT22;61291;52.524;13.422;2023-02-26T07:50:26;2.40;99.90
5711;DHT22;61291;52.524;13.422;2023-02-26T07:52:52;2.50;99.90
5711;DHT22;61291;52.524;13.422;2023-02-26T07:55:18;2.50;99.90
5711;DHT22;61291;52.524;13.422;2023-02-26T07:57:43;2.70;99.90
5711;DHT22;61291;52.524;13.422;2023-02-26T08:00:11;2.60;99.90
5711;DHT22;61291;52.524;13.422;2023-02-26T08:02:37;2.40;99.90
5711;DHT22;61291;52.524;13.422;2023-02-26T08:05:02;2.30;99.90
5711;DHT22;61291;52.524;13.422;2023-02-26T08:07:28;2.40;99.90
5711;DHT22;61291;52.524;13.422;2023-02-26T08:09:53;2.30;99.90
5711;DHT22;61291;52.524;13.422;2023-02-26T08:12:19;2.40;99.90
5711;DHT22;61291;52.524;13.422;2023-02-26T08:14:44;2.50;99.90
5711;DHT22;61291;52.524;13.422;2023-02-26T08:17:11;2.40;99.90
5711;DHT22;61291;52.524;13.422;2023-02-26T08:19:37;2.50;99.90
5711;DHT22;61291;52.524;13.422;2023-02-26T08:22:02;2.50;99.90
5711;DHT22;61291;52.524;13.422;2023-02-26T08:24:28;2.40;99.90
5711;DHT22;61291;52.524;13.422;2023-02-26T08:26:53;2.50;99.90
5711;DHT22;61291;52.524;13.422;2023-02-26T08:29:19;2.50;99.90
5711;DHT22;61291;52.524;13.422;2023-02-26T08:31:45;2.60;99.90
5711;DHT22;61291;52.524;13.422;2023-02-26T08:34:10;2.80;99.90
5711;DHT22;61291;52.524;13.422;2023-02-26T08:36:36;2.80;99.90
5711;DHT22;61291;52.524;13.422;2023-02-26T08:39:02;2.80;99.90
5711;DHT22;61291;52.524;13.422;2023-02-26T08:41:27;2.80;99.90
5711;DHT22;61291;52.524;13.422;2023-02-26T08:43:55;2.90;99.90
5711;DHT22;61291;52.524;13.422;2023-02-26T08:46:20;2.80;99.90
5711;DHT22;61291;52.524;13.422;2023-02-26T08:48:46;2.80;99.90
5711;DHT22;61291;52.524;13.422;2023-02-26T08:51:11;2.80;99.90
5711;DHT22;61291;52.524;13.422;2023-02-26T08:53:37;2.80;99.90
5711;DHT22;61291;52.524;13.422;2023-02-26T08:56:04;2.90;99.90
5711;DHT22;61291;52.524;13.422;2023-02-26T08:58:30;2.90;99.90
5711;DHT22;61291;52.524;13.422;2023-02-26T09:00:55;3.00;99.90
5711;DHT22;61291;52.524;13.422;2023-02-26T09:03:21;3.00;99.90
5711;DHT22;61291;52.524;13.422;2023-02-26T09:05:46;3.20;99.90
5711;DHT22;61291;52.524;13.422;2023-02-26T09:08:12;3.10;99.90
5711;DHT22;61291;52.524;13.422;2023-02-26T09:10:40;3.10;99.90
5711;DHT22;61291;52.524;13.422;2023-02-26T09:13:05;3.10;99.90
5711;DHT22;61291;52.524;13.422;2023-02-26T09:15:31;3.30;99.90
5711;DHT22;61291;52.524;13.422;2023-02-26T09:17:56;3.10;99.90
5711;DHT22;61291;52.524;13.422;2023-02-26T09:20:22;3.20;99.90
5711;DHT22;61291;52.524;13.422;2023-02-26T09:22:48;3.30;99.90
5711;DHT22;61291;52.524;13.422;2023-02-26T09:25:15;3.30;99.90
5711;DHT22;61291;52.524;13.422;2023-02-26T09:27:40;3.30;99.90
5711;DHT22;61291;52.524;13.422;2023-02-26T09:30:06;3.20;99.90
5711;DHT22;61291;52.524;13.422;2023-02-26T09:32:32;3.20;99.90
5711;DHT22;61291;52.524;13.422;2023-02-26T09:34:57;3.30;99.90
5711;DHT22;61291;52.524;13.422;2023-02-26T09:37:23;3.40;99.90
5711;DHT22;61291;52.524;13.422;2023-02-26T09:39:49;3.40;99.90
5711;DHT22;61291;52.524;13.422;2023-02-26T09:44:53;3.40;99.90
5711;DHT22;61291;52.524;13.422;2023-02-26T09:47:26;3.70;99.90
5711;DHT22;61291;52.524;13.422;2023-02-26T09:50:02;3.60;99.90
5711;DHT22;61291;52.524;13.422;2023-02-26T09:52:39;3.80;99.90
5711;DHT22;61291;52.524;13.422;2023-02-26T09:55:29;3.60;99.90
5711;DHT22;61291;52.524;13.422;2023-02-26T09:58:00;3.80;99.90
5711;DHT22;61291;52.524;13.422;2023-02-26T10:00:39;3.90;99.90
5711;DHT22;61291;52.524;13.422;2023-02-26T10:06:11;4.20;99.90
5711;DHT22;61291;52.524;13.422;2023-02-26T10:08:57;4.80;99.90
5711;DHT22;61291;52.524;13.422;2023-02-26T10:11:41;4.90;99.90
5711;DHT22;61291;52.524;13.422;2023-02-26T10:14:26;4.70;99.90
5711;DHT22;61291;52.524;13.422;2023-02-26T10:16:58;4.20;99.90
5711;DHT22;61291;52.524;13.422;2023-02-26T10:19:35;4.30;99.90
5711;DHT22;61291;52.524;13.422;2023-02-26T10:22:14;4.20;99.90
5711;DHT22;61291;52.524;13.422;2023-02-26T10:24:50;4.40;99.90
5711;DHT22;61291;52.524;13.422;2023-02-26T10:27:23;4.50;99.90
5711;DHT22;61291;52.524;13.422;2023-02-26T10:30:16;4.40;99.90
5711;DHT22;61291;52.524;13.422;2023-02-26T10:33:17;4.80;99.90
5711;DHT22;61291;52.524;13.422;2023-02-26T10:35:51;5.10;99.90
5711;DHT22;61291;52.524;13.422;2023-02-26T10:38:23;4.90;99.90
5711;DHT22;61291;52.524;13.422;2023-02-26T10:40:54;4.80;99.90
5711;DHT22;61291;52.524;13.422;2023-02-26T10:43:29;4.90;99.90
5711;DHT22;61291;52.524;13.422;2023-02-26T10:49:24;5.50;99.90
5711;DHT22;61291;52.524;13.422;2023-02-26T10:51:52;5.80;99.90
5711;DHT22;61291;52.524;13.422;2023-02-26T10:54:34;6.00;99.90
5711;DHT22;61291;52.524;13.422;2023-02-26T10:57:00;5.60;99.30
5711;DHT22;61291;52.524;13.422;2023-02-26T10:59:26;5.90;99.60
5711;DHT22;61291;52.524;13.422;2023-02-26T11:01:52;5.80;98.40
5711;DHT22;61291;52.524;13.422;2023-02-26T11:04:20;5.70;98.10
5711;DHT22;61291;52.524;13.422;2023-02-26T11:06:54;5.80;97.80
5711;DHT22;61291;52.524;13.422;2023-02-26T11:09:27;5.80;98.00
5711;DHT22;61291;52.524;13.422;2023-02-26T11:12:03;6.40;98.40
5711;DHT22;61291;52.524;13.422;2023-02-26T11:14:31;6.40;97.50
5711;DHT22;61291;52.524;13.422;2023-02-26T11:16:59;6.60;97.90
5711;DHT22;61291;52.524;13.422;2023-02-26T11:19:28;6.50;97.00
5711;DHT22;61291;52.524;13.422;2023-02-26T11:21:55;6.20;96.10
5711;DHT22;61291;52.524;13.422;2023-02-26T11:24:36;6.40;96.10
5711;DHT22;61291;52.524;13.422;2023-02-26T11:27:04;5.80;95.60
5711;DHT22;61291;52.524;13.422;2023-02-26T11:29:39;5.80;95.00
5711;DHT22;61291;52.524;13.422;2023-02-26T11:32:08;6.20;95.40
5711;DHT22;61291;52.524;13.422;2023-02-26T11:34:48;7.10;96.20
5711;DHT22;61291;52.524;13.422;2023-02-26T11:37:27;7.20;94.40
5711;DHT22;61291;52.524;13.422;2023-02-26T11:39:57;6.80;94.40
5711;DHT22;61291;52.524;13.422;2023-02-26T11:42:23;6.70;95.70
5711;DHT22;61291;52.524;13.422;2023-02-26T11:44:50;6.30;96.80
5711;DHT22;61291;52.524;13.422;2023-02-26T11:47:19;5.50;96.30
5711;DHT22;61291;52.524;13.422;2023-02-26T11:50:00;5.70;95.60
5711;DHT22;61291;52.524;13.422;2023-02-26T11:52:34;5.80;95.90
5711;DHT22;61291;52.524;13.422;2023-02-26T11:55:01;6.40;95.90
5711;DHT22;61291;52.524;13.422;2023-02-26T11:57:29;7.00;95.90
5711;DHT22;61291;52.524;13.422;2023-02-26T11:59:57;7.10;95.60
5711;DHT22;61291;52.524;13.422;2023-02-26T12:02:25;6.40;94.80
5711;DHT22;61291;52.524;13.422;2023-02-26T12:04:57;6.60;95.00
5711;DHT22;61291;52.524;13.422;2023-02-26T12:07:25;5.90;95.40
5711;DHT22;61291;52.524;13.422;2023-02-26T12:09:51;5.80;95.90
5711;DHT22;61291;52.524;13.422;2023-02-26T12:12:34;5.90;95.90
5711;DHT22;61291;52.524;13.422;2023-02-26T12:15:27;5.80;95.90
5711;DHT22;61291;52.524;13.422;2023-02-26T12:18:19;5.80;95.50
5711;DHT22;61291;52.524;13.422;2023-02-26T12:23:35;5.90;95.60
5711;DHT22;61291;52.524;13.422;2023-02-26T12:26:28;5.70;96.00
5711;DHT22;61291;52.524;13.422;2023-02-26T12:29:06;6.10;95.70
5711;DHT22;61291;52.524;13.422;2023-02-26T12:31:56;6.40;95.40
5711;DHT22;61291;52.524;13.422;2023-02-26T12:34:38;6.50;95.10
5711;DHT22;61291;52.524;13.422;2023-02-26T12:37:31;6.30;94.00
5711;DHT22;61291;52.524;13.422;2023-02-26T12:40:31;6.00;93.20
5711;DHT22;61291;52.524;13.422;2023-02-26T12:43:09;6.50;93.70
5711;DHT22;61291;52.524;13.422;2023-02-26T13:02:54;5.20;93.70
5711;DHT22;61291;52.524;13.422;2023-02-26T13:05:41;5.20;93.90
5711;DHT22;61291;52.524;13.422;2023-02-26T13:11:18;6.30;94.00
5711;DHT22;61291;52.524;13.422;2023-02-26T13:16:27;6.30;93.80
5711;DHT22;61291;52.524;13.422;2023-02-26T13:21:56;5.80;94.30
5711;DHT22;61291;52.524;13.422;2023-02-26T13:24:35;5.60;94.40
5711;DHT22;61291;52.524;13.422;2023-02-26T13:27:05;5.60;94.10
5711;DHT22;61291;52.524;13.422;2023-02-26T13:29:39;5.80;94.70
5711;DHT22;61291;52.524;13.422;2023-02-26T13:32:16;6.10;94.50
5711;DHT22;61291;52.524;13.422;2023-02-26T13:35:00;6.40;94.50
5711;DHT22;61291;52.524;13.422;2023-02-26T13:37:40;6.90;94.50
5711;DHT22;61291;52.524;13.422;2023-02-26T13:40:14;6.50;93.90
5711;DHT22;61291;52.524;13.422;2023-02-26T13:45:58;6.10;92.90
5711;DHT22;61291;52.524;13.422;2023-02-26T13:53:59;5.20;93.50
5711;DHT22;61291;52.524;13.422;2023-02-26T14:01:55;5.20;93.90
5711;DHT22;61291;52.524;13.422;2023-02-26T14:04:28;5.50;93.80
5711;DHT22;61291;52.524;13.422;2023-02-26T14:07:09;5.70;93.90
5711;DHT22;61291;52.524;13.422;2023-02-26T14:09:46;5.60;93.70
5711;DHT22;61291;52.524;13.422;2023-02-26T14:12:29;5.60;93.10
5711;DHT22;61291;52.524;13.422;2023-02-26T14:22:41;5.90;92.40
5711;DHT22;61291;52.524;13.422;2023-02-26T14:25:18;6.00;92.40
5711;DHT22;61291;52.524;13.422;2023-02-26T14:27:46;6.50;92.50
5711;DHT22;61291;52.524;13.422;2023-02-26T14:30:18;5.90;92.50
5711;DHT22;61291;52.524;13.422;2023-02-26T14:33:06;5.20;92.70
5711;DHT22;61291;52.524;13.422;2023-02-26T14:35:37;5.30;93.10
5711;DHT22;61291;52.524;13.422;2023-02-26T14:38:34;5.00;93.00
5711;DHT22;61291;52.524;13.422;2023-02-26T14:41:13;5.20;93.40
5711;DHT22;61291;52.524;13.422;2023-02-26T14:43:48;5.00;93.40
5711;DHT22;61291;52.524;13.422;2023-02-26T14:46:15;5.10;93.30
5711;DHT22;61291;52.524;13.422;2023-02-26T14:48:41;5.70;93.20
5711;DHT22;61291;52.524;13.422;2023-02-26T14:54:31;5.00;90.80
5711;DHT22;61291;52.524;13.422;2023-02-26T14:57:36;4.80;90.70
5711;DHT22;61291;52.524;13.422;2023-02-26T15:00:35;4.70;90.80
5711;DHT22;61291;52.524;13.422;2023-02-26T15:03:30;4.70;91.10
5711;DHT22;61291;52.524;13.422;2023-02-26T15:08:59;4.50;91.10
5711;DHT22;61291;52.524;13.422;2023-02-26T15:11:39;4.70;91.40
5711;DHT22;61291;52.524;13.422;2023-02-26T15:17:29;5.40;91.80
5711;DHT22;61291;52.524;13.422;2023-02-26T15:23:02;5.70;92.00
5711;DHT22;61291;52.524;13.422;2023-02-26T15:25:40;5.60;92.20
5711;DHT22;61291;52.524;13.422;2023-02-26T15:28:11;5.50;91.90
5711;DHT22;61291;52.524;13.422;2023-02-26T15:30:37;5.40;91.80
5711;DHT22;61291;52.524;13.422;2023-02-26T15:33:12;5.30;91.40
5711;DHT22;61291;52.524;13.422;2023-02-26T15:35:37;5.30;91.10
5711;DHT22;61291;52.524;13.422;2023-02-26T15:38:03;5.00;90.90
5711;DHT22;61291;52.524;13.422;2023-02-26T15:40:34;5.00;91.20
5711;DHT22;61291;52.524;13.422;2023-02-26T15:43:02;4.80;91.20
5711;DHT22;61291;52.524;13.422;2023-02-26T15:45:35;4.60;91.70
5711;DHT22;61291;52.524;13.422;2023-02-26T15:48:04;4.50;91.60
5711;DHT22;61291;52.524;13.422;2023-02-26T15:50:35;4.30;92.00
5711;DHT22;61291;52.524;13.422;2023-02-26T15:53:03;4.20;92.20
5711;DHT22;61291;52.524;13.422;2023-02-26T15:55:35;4.10;92.50
5711;DHT22;61291;52.524;13.422;2023-02-26T15:58:04;4.10;92.80
5711;DHT22;61291;52.524;13.422;2023-02-26T16:00:33;4.00;92.70
5711;DHT22;61291;52.524;13.422;2023-02-26T16:03:00;4.00;92.70
5711;DHT22;61291;52.524;13.422;2023-02-26T16:05:26;3.80;92.90
5711;DHT22;61291;52.524;13.422;2023-02-26T16:07:52;3.70;93.30
5711;DHT22;61291;52.524;13.422;2023-02-26T16:10:33;3.60;93.10
5711;DHT22;61291;52.524;13.422;2023-02-26T16:13:03;3.50;93.60
5711;DHT22;61291;52.524;13.422;2023-02-26T16:15:33;3.40;93.70
5711;DHT22;61291;52.524;13.422;2023-02-26T16:18:00;3.20;93.70
5711;DHT22;61291;52.524;13.422;2023-02-26T16:20:36;3.10;94.10
5711;DHT22;61291;52.524;13.422;2023-02-26T16:23:06;3.10;94.50
5711;DHT22;61291;52.524;13.422;2023-02-26T16:26:01;3.00;94.80
5711;DHT22;61291;52.524;13.422;2023-02-26T16:28:31;3.10;95.10
5711;DHT22;61291;52.524;13.422;2023-02-26T16:30:59;3.00;94.90
5711;DHT22;61291;52.524;13.422;2023-02-26T16:33:26;2.90;95.00
5711;DHT22;61291;52.524;13.422;2023-02-26T16:36:12;2.90;95.60
5711;DHT22;61291;52.524;13.422;2023-02-26T16:38:46;2.90;95.90
5711;DHT22;61291;52.524;13.422;2023-02-26T16:41:21;2.90;96.00
5711;DHT22;61291;52.524;13.422;2023-02-26T16:43:53;2.80;96.40
5711;DHT22;61291;52.524;13.422;2023-02-26T16:49:02;2.70;96.60
5711;DHT22;61291;52.524;13.422;2023-02-26T16:51:33;2.50;96.20
5711;DHT22;61291;52.524;13.422;2023-02-26T16:54:01;2.60;96.80
5711;DHT22;61291;52.524;13.422;2023-02-26T16:56:37;2.70;96.90
5711;DHT22;61291;52.524;13.422;2023-02-26T16:59:12;2.60;96.80
5711;DHT22;61291;52.524;13.422;2023-02-26T17:01:56;2.60;97.20
5711;DHT22;61291;52.524;13.422;2023-02-26T17:04:31;2.60;97.30
5711;DHT22;61291;52.524;13.422;2023-02-26T17:06:57;2.60;97.30
5711;DHT22;61291;52.524;13.422;2023-02-26T17:09:39;2.40;97.50
5711;DHT22;61291;52.524;13.422;2023-02-26T17:12:16;2.50;97.80
5711;DHT22;61291;52.524;13.422;2023-02-26T17:14:46;2.40;98.30
5711;DHT22;61291;52.524;13.422;2023-02-26T17:17:13;2.40;98.10
5711;DHT22;61291;52.524;13.422;2023-02-26T17:19:38;2.60;98.30
5711;DHT22;61291;52.524;13.422;2023-02-26T17:22:07;2.60;98.20
5711;DHT22;61291;52.524;13.422;2023-02-26T17:24:36;2.60;98.30
5711;DHT22;61291;52.524;13.422;2023-02-26T17:27:07;2.70;98.10
5711;DHT22;61291;52.524;13.422;2023-02-26T17:29:37;2.80;97.90
5711;DHT22;61291;52.524;13.422;2023-02-26T17:32:04;2.90;98.00
5711;DHT22;61291;52.524;13.422;2023-02-26T17:34:30;3.00;98.00
5711;DHT22;61291;52.524;13.422;2023-02-26T17:36:56;3.00;98.00
5711;DHT22;61291;52.524;13.422;2023-02-26T17:39:22;3.00;98.20
5711;DHT22;61291;52.524;13.422;2023-02-26T17:41:47;3.00;98.00
5711;DHT22;61291;52.524;13.422;2023-02-26T17:44:13;3.00;98.00
5711;DHT22;61291;52.524;13.422;2023-02-26T17:46:39;3.00;98.40
5711;DHT22;61291;52.524;13.422;2023-02-26T17:49:04;2.90;98.20
5711;DHT22;61291;52.524;13.422;2023-02-26T17:51:30;2.80;98.40